sensor_id;sensor_type;location;lat;lon;timestamp;pressure;altitude;pressure_sealevel;temperature;humidity
11038;BME280;5572;49.540;11.932;2023-11-19T00:02:25;96939.25;;;6.24;100.00
11038;BME280;5572;49.540;11.932;2023-11-19T00:04:52;96905.50;;;6.60;100.00
11038;BME280;5572;49.540;11.932;2023-11-19T00:07:20;96918.81;;;6.50;100.00
11038;BME280;5572;49.540;11.932;2023-11-19T00:09:46;96914.72;;;6.42;100.00
11038;BME280;5572;49.540;11.932;2023-11-19T00:12:13;96909.56;;;6.09;100.00
11038;BME280;5572;49.540;11.932;2023-11-19T00:14:39;96892.00;;;6.55;100.00
11038;BME280;5572;49.540;11.932;2023-11-19T00:17:06;96889.41;;;6.65;100.00
11038;BME280;5572;49.540;11.932;2023-11-19T00:19:33;96899.56;;;6.58;100.00
11038;BME280;5572;49.540;11.932;2023-11-19T00:21:59;96876.06;;;6.75;100.00
11038;BME280;5572;49.540;11.932;2023-11-19T00:24:29;96884.63;;;6.40;100.00
11038;BME280;5572;49.540;11.932;2023-11-19T00:26:57;96883.09;;;6.49;100.00
11038;BME280;5572;49.540;11.932;2023-11-19T00:29:23;96881.41;;;6.70;100.00
11038;BME280;5572;49.540;11.932;2023-11-19T00:31:50;96885.28;;;6.52;100.00
11038;BME280;5572;49.540;11.932;2023-11-19T00:34:16;96893.19;;;6.64;100.00
11038;BME280;5572;49.540;11.932;2023-11-19T00:36:46;96901.53;;;6.67;100.00
11038;BME280;5572;49.540;11.932;2023-11-19T00:39:13;96907.84;;;6.82;100.00
11038;BME280;5572;49.540;11.932;2023-11-19T00:41:41;96901.84;;;6.76;100.00
11038;BME280;5572;49.540;11.932;2023-11-19T00:44:08;96881.25;;;6.55;100.00
11038;BME280;5572;49.540;11.932;2023-11-19T00:46:34;96880.28;;;6.34;100.00
11038;BME280;5572;49.540;11.932;2023-11-19T00:49:02;96853.97;;;6.05;100.00
11038;BME280;5572;49.540;11.932;2023-11-19T00:51:29;96852.47;;;6.45;100.00
11038;BME280;5572;49.540;11.932;2023-11-19T00:53:56;96856.22;;;6.44;100.00
11038;BME280;5572;49.540;11.932;2023-11-19T00:56:23;96841.53;;;6.88;100.00
11038;BME280;5572;49.540;11.932;2023-11-19T00:58:51;96859.56;;;6.97;100.00
11038;BME280;5572;49.540;11.932;2023-11-19T01:01:17;96850.88;;;6.85;100.00
11038;BME280;5572;49.540;11.932;2023-11-19T01:03:44;96853.34;;;6.92;100.00
11038;BME280;5572;49.540;11.932;2023-11-19T01:06:11;96843.31;;;6.78;100.00
11038;BME280;5572;49.540;11.932;2023-11-19T01:08:37;96849.72;;;6.40;100.00
11038;BME280;5572;49.540;11.932;2023-11-19T01:11:04;96839.19;;;6.65;100.00
11038;BME280;5572;49.540;11.932;2023-11-19T01:13:30;96843.16;;;6.53;100.00
11038;BME280;5572;49.540;11.932;2023-11-19T01:15:58;96841.53;;;6.57;100.00
11038;BME280;5572;49.540;11.932;2023-11-19T01:18:28;96833.56;;;6.67;100.00
11038;BME280;5572;49.540;11.932;2023-11-19T01:20:56;96832.91;;;6.50;100.00
11038;BME280;5572;49.540;11.932;2023-11-19T01:23:23;96827.97;;;6.73;100.00
11038;BME280;5572;49.540;11.932;2023-11-19T01:25:51;96820.19;;;6.72;100.00
11038;BME280;5572;49.540;11.932;2023-11-19T01:28:18;96820.03;;;6.52;100.00
11038;BME280;5572;49.540;11.932;2023-11-19T01:30:46;96823.88;;;6.61;100.00
11038;BME280;5572;49.540;11.932;2023-11-19T01:33:15;96816.97;;;6.75;100.00
11038;BME280;5572;49.540;11.932;2023-11-19T01:35:44;96812.41;;;6.39;100.00
11038;BME280;5572;49.540;11.932;2023-11-19T01:38:12;96813.91;;;6.56;100.00
11038;BME280;5572;49.540;11.932;2023-11-19T01:40:40;96800.34;;;6.78;100.00
11038;BME280;5572;49.540;11.932;2023-11-19T01:43:08;96781.69;;;6.61;100.00
11038;BME280;5572;49.540;11.932;2023-11-19T01:45:37;96807.00;;;6.34;100.00
11038;BME280;5572;49.540;11.932;2023-11-19T01:48:06;96782.81;;;6.70;100.00
11038;BME280;5572;49.540;11.932;2023-11-19T01:50:38;96799.84;;;6.49;100.00
11038;BME280;5572;49.540;11.932;2023-11-19T01:53:05;96797.66;;;6.78;100.00
11038;BME280;5572;49.540;11.932;2023-11-19T01:55:33;96793.53;;;6.65;100.00
11038;BME280;5572;49.540;11.932;2023-11-19T01:58:01;96787.16;;;6.76;100.00
11038;BME280;5572;49.540;11.932;2023-11-19T02:00:28;96793.31;;;6.72;100.00
11038;BME280;5572;49.540;11.932;2023-11-19T02:02:59;96808.66;;;6.76;100.00
11038;BME280;5572;49.540;11.932;2023-11-19T02:05:27;96798.38;;;7.14;100.00
11038;BME280;5572;49.540;11.932;2023-11-19T02:07:56;96782.50;;;6.62;100.00
11038;BME280;5572;49.540;11.932;2023-11-19T02:10:23;96760.75;;;6.58;100.00
11038;BME280;5572;49.540;11.932;2023-11-19T02:12:50;96756.44;;;6.57;100.00
11038;BME280;5572;49.540;11.932;2023-11-19T02:15:18;96749.25;;;6.68;100.00
11038;BME280;5572;49.540;11.932;2023-11-19T02:17:47;96753.47;;;6.59;100.00
11038;BME280;5572;49.540;11.932;2023-11-19T02:20:16;96733.84;;;6.53;100.00
11038;BME280;5572;49.540;11.932;2023-11-19T02:22:46;96734.22;;;6.72;100.00
11038;BME280;5572;49.540;11.932;2023-11-19T02:25:20;96724.78;;;6.64;100.00
11038;BME280;5572;49.540;11.932;2023-11-19T02:27:53;96715.94;;;6.64;100.00
11038;BME280;5572;49.540;11.932;2023-11-19T02:30:23;96714.00;;;6.54;100.00
11038;BME280;5572;49.540;11.932;2023-11-19T02:32:52;96704.19;;;6.84;100.00
11038;BME280;5572;49.540;11.932;2023-11-19T02:35:23;96701.53;;;6.94;100.00
11038;BME280;5572;49.540;11.932;2023-11-19T02:37:50;96707.94;;;6.74;100.00
11038;BME280;5572;49.540;11.932;2023-11-19T02:40:17;96705.38;;;7.03;100.00
11038;BME280;5572;49.540;11.932;2023-11-19T02:42:45;96707.47;;;6.96;100.00
11038;BME280;5572;49.540;11.932;2023-11-19T02:45:14;96708.81;;;6.94;100.00
11038;BME280;5572;49.540;11.932;2023-11-19T02:47:42;96726.56;;;6.49;100.00
11038;BME280;5572;49.540;11.932;2023-11-19T02:50:11;96724.63;;;6.39;100.00
11038;BME280;5572;49.540;11.932;2023-11-19T02:52:40;96724.59;;;6.81;100.00
11038;BME280;5572;49.540;11.932;2023-11-19T02:55:09;96710.63;;;6.79;100.00
11038;BME280;5572;49.540;11.932;2023-11-19T02:57:40;96714.97;;;6.94;100.00
11038;BME280;5572;49.540;11.932;2023-11-19T03:00:15;96711.97;;;6.81;100.00
11038;BME280;5572;49.540;11.932;2023-11-19T03:02:44;96719.75;;;6.73;100.00
11038;BME280;5572;49.540;11.932;2023-11-19T03:05:20;96718.19;;;6.86;100.00
11038;BME280;5572;49.540;11.932;2023-11-19T03:07:50;96722.47;;;6.87;100.00
11038;BME280;5572;49.540;11.932;2023-11-19T03:10:19;96720.06;;;6.86;100.00
11038;BME280;5572;49.540;11.932;2023-11-19T03:12:48;96717.00;;;6.68;100.00
11038;BME280;5572;49.540;11.932;2023-11-19T03:15:22;96692.72;;;7.09;100.00
11038;BME280;5572;49.540;11.932;2023-11-19T03:17:51;96694.63;;;7.08;100.00
11038;BME280;5572;49.540;11.932;2023-11-19T03:20:19;96703.72;;;6.92;100.00
11038;BME280;5572;49.540;11.932;2023-11-19T03:22:49;96708.25;;;6.92;100.00
11038;BME280;5572;49.540;11.932;2023-11-19T03:25:18;96698.53;;;6.81;100.00
11038;BME280;5572;49.540;11.932;2023-11-19T03:27:46;96714.22;;;7.04;100.00
11038;BME280;5572;49.540;11.932;2023-11-19T03:30:15;96713.91;;;6.95;100.00
11038;BME280;5572;49.540;11.932;2023-11-19T03:32:44;96707.38;;;6.77;100.00
11038;BME280;5572;49.540;11.932;2023-11-19T03:35:12;96695.44;;;7.14;100.00
11038;BME280;5572;49.540;11.932;2023-11-19T03:37:47;96705.88;;;7.00;100.00
11038;BME280;5572;49.540;11.932;2023-11-19T03:40:15;96698.09;;;7.09;100.00
11038;BME280;5572;49.540;11.932;2023-11-19T03:42:45;96698.31;;;6.87;100.00
11038;BME280;5572;49.540;11.932;2023-11-19T03:45:14;96684.91;;;6.92;100.00
11038;BME280;5572;49.540;11.932;2023-11-19T03:47:48;96668.22;;;6.90;100.00
11038;BME280;5572;49.540;11.932;2023-11-19T03:50:20;96663.13;;;6.94;100.00
11038;BME280;5572;49.540;11.932;2023-11-19T03:53:02;96656.81;;;6.54;100.00
11038;BME280;5572;49.540;11.932;2023-11-19T03:55:33;96655.97;;;6.53;100.00
11038;BME280;5572;49.540;11.932;2023-11-19T03:58:04;96656.41;;;6.96;100.00
11038;BME280;5572;49.540;11.932;2023-11-19T04:00:46;96656.19;;;6.98;100.00
11038;BME280;5572;49.540;11.932;2023-11-19T04:09:41;96626.84;;;6.82;100.00
11038;BME280;5572;49.540;11.932;2023-11-19T04:12:13;96604.03;;;6.23;100.00
11038;BME280;5572;49.540;11.932;2023-11-19T04:14:42;96595.91;;;6.79;100.00
11038;BME280;5572;49.540;11.932;2023-11-19T04:17:23;96584.91;;;6.85;100.00
11038;BME280;5572;49.540;11.932;2023-11-19T04:19:53;96581.38;;;6.65;100.00
11038;BME280;5572;49.540;11.932;2023-11-19T04:22:22;96565.84;;;6.77;100.00
11038;BME280;5572;49.540;11.932;2023-11-19T04:24:53;96561.25;;;6.63;100.00
11038;BME280;5572;49.540;11.932;2023-11-19T04:27:22;96572.06;;;6.92;100.00
11038;BME280;5572;49.540;11.932;2023-11-19T04:29:54;96594.22;;;6.53;100.00
11038;BME280;5572;49.540;11.932;2023-11-19T04:32:23;96576.03;;;6.80;100.00
11038;BME280;5572;49.540;11.932;2023-11-19T04:34:51;96571.75;;;6.79;100.00
11038;BME280;5572;49.540;11.932;2023-11-19T04:37:21;96565.09;;;7.01;100.00
11038;BME280;5572;49.540;11.932;2023-11-19T04:39:49;96577.19;;;7.04;100.00
11038;BME280;5572;49.540;11.932;2023-11-19T04:42:25;96576.91;;;7.15;100.00
11038;BME280;5572;49.540;11.932;2023-11-19T04:44:53;96583.91;;;7.01;100.00
11038;BME280;5572;49.540;11.932;2023-11-19T04:47:22;96591.13;;;7.01;100.00
11038;BME280;5572;49.540;11.932;2023-11-19T04:49:51;96605.91;;;6.93;100.00
11038;BME280;5572;49.540;11.932;2023-11-19T04:52:19;96609.13;;;6.95;100.00
11038;BME280;5572;49.540;11.932;2023-11-19T04:54:47;96607.03;;;7.12;100.00
11038;BME280;5572;49.540;11.932;2023-11-19T04:57:19;96612.88;;;6.89;100.00
11038;BME280;5572;49.540;11.932;2023-11-19T04:59:51;96614.78;;;7.04;100.00
11038;BME280;5572;49.540;11.932;2023-11-19T05:02:22;96631.97;;;6.88;100.00
11038;BME280;5572;49.540;11.932;2023-11-19T05:04:52;96630.66;;;7.05;100.00
11038;BME280;5572;49.540;11.932;2023-11-19T05:07:21;96630.66;;;7.10;100.00
11038;BME280;5572;49.540;11.932;2023-11-19T05:09:49;96622.34;;;7.17;100.00
11038;BME280;5572;49.540;11.932;2023-11-19T05:12:18;96617.22;;;7.05;100.00
11038;BME280;5572;49.540;11.932;2023-11-19T05:14:51;96625.53;;;7.09;100.00
11038;BME280;5572;49.540;11.932;2023-11-19T05:17:29;96619.66;;;7.12;100.00
11038;BME280;5572;49.540;11.932;2023-11-19T05:20:03;96619.94;;;7.45;100.00
11038;BME280;5572;49.540;11.932;2023-11-19T05:22:39;96613.22;;;7.28;100.00
11038;BME280;5572;49.540;11.932;2023-11-19T05:25:09;96604.59;;;7.11;100.00
11038;BME280;5572;49.540;11.932;2023-11-19T05:27:51;96594.94;;;7.35;100.00
11038;BME280;5572;49.540;11.932;2023-11-19T05:30:26;96607.31;;;7.36;100.00
11038;BME280;5572;49.540;11.932;2023-11-19T05:32:54;96600.31;;;7.30;100.00
11038;BME280;5572;49.540;11.932;2023-11-19T05:35:24;96604.03;;;7.09;100.00
11038;BME280;5572;49.540;11.932;2023-11-19T05:38:05;96586.34;;;7.43;100.00
11038;BME280;5572;49.540;11.932;2023-11-19T05:40:35;96586.59;;;7.36;100.00
11038;BME280;5572;49.540;11.932;2023-11-19T05:43:05;96591.47;;;7.39;100.00
11038;BME280;5572;49.540;11.932;2023-11-19T05:45:35;96571.31;;;7.47;100.00
11038;BME280;5572;49.540;11.932;2023-11-19T05:48:03;96560.53;;;7.12;100.00
11038;BME280;5572;49.540;11.932;2023-11-19T05:50:33;96566.72;;;7.17;100.00
11038;BME280;5572;49.540;11.932;2023-11-19T05:53:06;96559.47;;;7.38;100.00
11038;BME280;5572;49.540;11.932;2023-11-19T07:19:31;96590.13;;;7.67;100.00
11038;BME280;5572;49.540;11.932;2023-11-19T07:21:57;96594.41;;;7.63;100.00
11038;BME280;5572;49.540;11.932;2023-11-19T07:24:24;96600.59;;;7.68;100.00
11038;BME280;5572;49.540;11.932;2023-11-19T07:26:52;96607.59;;;7.59;100.00
11038;BME280;5572;49.540;11.932;2023-11-19T07:29:19;96610.53;;;7.82;100.00
11038;BME280;5572;49.540;11.932;2023-11-19T07:31:48;96611.34;;;7.88;100.00
11038;BME280;5572;49.540;11.932;2023-11-19T07:34:14;96613.50;;;7.81;100.00
11038;BME280;5572;49.540;11.932;2023-11-19T07:36:42;96606.78;;;7.88;100.00
11038;BME280;5572;49.540;11.932;2023-11-19T07:39:09;96595.47;;;7.96;100.00
11038;BME280;5572;49.540;11.932;2023-11-19T07:41:35;96599.50;;;7.84;100.00
11038;BME280;5572;49.540;11.932;2023-11-19T07:44:02;96604.84;;;8.04;100.00
11038;BME280;5572;49.540;11.932;2023-11-19T07:46:28;96597.88;;;8.03;100.00
11038;BME280;5572;49.540;11.932;2023-11-19T07:48:55;96586.25;;;8.32;100.00
11038;BME280;5572;49.540;11.932;2023-11-19T07:51:21;96602.94;;;8.29;100.00
11038;BME280;5572;49.540;11.932;2023-11-19T07:53:50;96598.38;;;8.30;100.00
11038;BME280;5572;49.540;11.932;2023-11-19T07:56:16;96599.72;;;8.12;100.00
11038;BME280;5572;49.540;11.932;2023-11-19T07:58:43;96597.06;;;8.07;100.00
11038;BME280;5572;49.540;11.932;2023-11-19T08:01:09;96578.44;;;8.31;100.00
11038;BME280;5572;49.540;11.932;2023-11-19T08:03:36;96594.38;;;8.02;100.00
11038;BME280;5572;49.540;11.932;2023-11-19T08:06:03;96586.50;;;8.41;100.00
11038;BME280;5572;49.540;11.932;2023-11-19T08:08:30;96587.28;;;8.41;100.00
11038;BME280;5572;49.540;11.932;2023-11-19T08:11:00;96593.63;;;8.70;100.00
11038;BME280;5572;49.540;11.932;2023-11-19T08:13:26;96603.94;;;8.53;100.00
11038;BME280;5572;49.540;11.932;2023-11-19T08:15:53;96596.84;;;8.72;100.00
11038;BME280;5572;49.540;11.932;2023-11-19T08:18:19;96602.34;;;8.52;100.00
11038;BME280;5572;49.540;11.932;2023-11-19T08:20:46;96601.47;;;8.66;100.00
11038;BME280;5572;49.540;11.932;2023-11-19T08:23:17;96607.31;;;8.83;100.00
11038;BME280;5572;49.540;11.932;2023-11-19T08:25:44;96594.56;;;8.36;100.00
11038;BME280;5572;49.540;11.932;2023-11-19T08:28:12;96595.28;;;8.61;100.00
11038;BME280;5572;49.540;11.932;2023-11-19T08:30:38;96597.97;;;8.66;100.00
11038;BME280;5572;49.540;11.932;2023-11-19T08:33:05;96597.22;;;8.46;100.00
11038;BME280;5572;49.540;11.932;2023-11-19T08:35:32;96586.56;;;8.84;100.00
11038;BME280;5572;49.540;11.932;2023-11-19T08:37:58;96579.88;;;8.76;100.00
11038;BME280;5572;49.540;11.932;2023-11-19T08:40:25;96576.03;;;9.31;100.00
11038;BME280;5572;49.540;11.932;2023-11-19T08:42:52;96582.00;;;9.23;100.00
11038;BME280;5572;49.540;11.932;2023-11-19T08:45:20;96590.50;;;9.39;100.00
11038;BME280;5572;49.540;11.932;2023-11-19T08:47:46;96591.41;;;9.30;100.00
11038;BME280;5572;49.540;11.932;2023-11-19T08:50:13;96569.81;;;8.92;100.00
11038;BME280;5572;49.540;11.932;2023-11-19T08:52:39;96569.59;;;9.27;100.00
11038;BME280;5572;49.540;11.932;2023-11-19T08:55:06;96571.63;;;9.44;100.00
11038;BME280;5572;49.540;11.932;2023-11-19T08:57:35;96574.41;;;9.30;100.00
11038;BME280;5572;49.540;11.932;2023-11-19T09:00:01;96582.72;;;9.38;100.00
11038;BME280;5572;49.540;11.932;2023-11-19T09:02:30;96585.78;;;9.22;100.00
11038;BME280;5572;49.540;11.932;2023-11-19T09:04:57;96573.19;;;9.12;100.00
11038;BME280;5572;49.540;11.932;2023-11-19T09:07:24;96561.25;;;9.23;100.00
11038;BME280;5572;49.540;11.932;2023-11-19T09:09:50;96565.00;;;9.27;100.00
11038;BME280;5572;49.540;11.932;2023-11-19T09:12:17;96548.13;;;9.45;100.00
11038;BME280;5572;49.540;11.932;2023-11-19T09:14:43;96559.38;;;9.85;100.00
11038;BME280;5572;49.540;11.932;2023-11-19T09:17:11;96569.53;;;9.98;100.00
11038;BME280;5572;49.540;11.932;2023-11-19T09:19:39;96572.91;;;9.80;100.00
11038;BME280;5572;49.540;11.932;2023-11-19T09:22:05;96562.69;;;9.44;100.00
11038;BME280;5572;49.540;11.932;2023-11-19T09:24:32;96559.97;;;9.49;100.00
11038;BME280;5572;49.540;11.932;2023-11-19T09:26:58;96558.28;;;9.58;100.00
11038;BME280;5572;49.540;11.932;2023-11-19T09:29:25;96555.94;;;9.80;100.00
11038;BME280;5572;49.540;11.932;2023-11-19T09:31:52;96564.44;;;9.63;100.00
11038;BME280;5572;49.540;11.932;2023-11-19T09:34:18;96567.47;;;9.57;100.00
11038;BME280;5572;49.540;11.932;2023-11-19T09:36:46;96583.94;;;9.55;100.00
11038;BME280;5572;49.540;11.932;2023-11-19T09:39:13;96565.06;;;9.55;100.00
11038;BME280;5572;49.540;11.932;2023-11-19T09:41:43;96561.19;;;9.66;100.00
11038;BME280;5572;49.540;11.932;2023-11-19T09:44:10;96564.09;;;10.03;100.00
11038;BME280;5572;49.540;11.932;2023-11-19T09:46:37;96558.91;;;10.07;100.00
11038;BME280;5572;49.540;11.932;2023-11-19T09:49:05;96575.47;;;10.24;100.00
11038;BME280;5572;49.540;11.932;2023-11-19T09:51:34;96567.97;;;10.21;100.00
11038;BME280;5572;49.540;11.932;2023-11-19T09:54:02;96565.69;;;10.04;100.00
11038;BME280;5572;49.540;11.932;2023-11-19T09:56:29;96541.00;;;9.87;100.00
11038;BME280;5572;49.540;11.932;2023-11-19T09:58:56;96538.13;;;10.30;100.00
11038;BME280;5572;49.540;11.932;2023-11-19T10:01:23;96538.16;;;10.49;100.00
11038;BME280;5572;49.540;11.932;2023-11-19T10:03:50;96532.50;;;10.69;100.00
11038;BME280;5572;49.540;11.932;2023-11-19T10:06:17;96526.09;;;10.83;100.00
11038;BME280;5572;49.540;11.932;2023-11-19T10:08:44;96516.75;;;10.94;100.00
11038;BME280;5572;49.540;11.932;2023-11-19T10:11:12;96520.09;;;11.23;100.00
11038;BME280;5572;49.540;11.932;2023-11-19T10:13:40;96506.97;;;11.16;100.00
11038;BME280;5572;49.540;11.932;2023-11-19T10:16:08;96497.91;;;11.58;100.00
11038;BME280;5572;49.540;11.932;2023-11-19T10:18:36;96496.97;;;11.81;100.00
11038;BME280;5572;49.540;11.932;2023-11-19T10:21:04;96496.50;;;12.19;100.00
11038;BME280;5572;49.540;11.932;2023-11-19T10:23:47;96471.72;;;12.12;100.00
11038;BME280;5572;49.540;11.932;2023-11-19T10:26:15;96476.69;;;11.78;100.00
11038;BME280;5572;49.540;11.932;2023-11-19T10:28:42;96459.97;;;12.03;100.00
11038;BME280;5572;49.540;11.932;2023-11-19T10:31:11;96463.88;;;12.37;100.00
11038;BME280;5572;49.540;11.932;2023-11-19T10:33:38;96448.03;;;12.17;100.00
11038;BME280;5572;49.540;11.932;2023-11-19T10:36:05;96441.50;;;12.18;100.00
11038;BME280;5572;49.540;11.932;2023-11-19T10:38:32;96427.28;;;12.62;100.00
11038;BME280;5572;49.540;11.932;2023-11-19T10:40:58;96428.25;;;12.79;100.00
11038;BME280;5572;49.540;11.932;2023-11-19T10:43:26;96407.81;;;12.95;100.00
11038;BME280;5572;49.540;11.932;2023-11-19T10:45:53;96392.22;;;13.00;100.00
11038;BME280;5572;49.540;11.932;2023-11-19T10:48:20;96380.84;;;13.42;100.00
11038;BME280;5572;49.540;11.932;2023-11-19T10:50:53;96376.81;;;13.62;100.00
11038;BME280;5572;49.540;11.932;2023-11-19T10:53:21;96359.94;;;13.81;100.00
11038;BME280;5572;49.540;11.932;2023-11-19T10:55:51;96353.34;;;13.74;100.00
11038;BME280;5572;49.540;11.932;2023-11-19T10:58:19;96365.69;;;13.80;100.00
11038;BME280;5572;49.540;11.932;2023-11-19T11:00:52;96357.13;;;13.56;100.00
11038;BME280;5572;49.540;11.932;2023-11-19T11:03:21;96348.22;;;13.64;100.00
11038;BME280;5572;49.540;11.932;2023-11-19T11:05:49;96347.38;;;13.64;100.00
11038;BME280;5572;49.540;11.932;2023-11-19T11:08:16;96337.94;;;13.91;100.00
11038;BME280;5572;49.540;11.932;2023-11-19T11:10:44;96315.31;;;14.38;100.00
11038;BME280;5572;49.540;11.932;2023-11-19T11:13:13;96325.94;;;14.01;100.00
11038;BME280;5572;49.540;11.932;2023-11-19T11:15:40;96304.50;;;13.91;100.00
11038;BME280;5572;49.540;11.932;2023-11-19T11:18:09;96288.34;;;13.86;100.00
11038;BME280;5572;49.540;11.932;2023-11-19T11:20:36;96278.53;;;13.68;100.00
11038;BME280;5572;49.540;11.932;2023-11-19T11:23:29;96269.31;;;13.77;100.00
11038;BME280;5572;49.540;11.932;2023-11-19T11:26:12;96260.41;;;13.94;100.00
11038;BME280;5572;49.540;11.932;2023-11-19T11:28:51;96272.16;;;13.73;100.00
11038;BME280;5572;49.540;11.932;2023-11-19T11:31:31;96262.78;;;13.95;100.00
11038;BME280;5572;49.540;11.932;2023-11-19T11:34:17;96246.16;;;14.05;100.00
11038;BME280;5572;49.540;11.932;2023-11-19T11:36:53;96250.31;;;13.86;100.00
11038;BME280;5572;49.540;11.932;2023-11-19T11:39:26;96244.66;;;13.66;100.00
11038;BME280;5572;49.540;11.932;2023-11-19T11:44:58;96226.34;;;13.79;100.00
11038;BME280;5572;49.540;11.932;2023-11-19T11:47:26;96243.50;;;14.31;100.00
11038;BME280;5572;49.540;11.932;2023-11-19T11:50:14;96228.59;;;14.03;100.00
11038;BME280;5572;49.540;11.932;2023-11-19T11:55:53;96195.84;;;14.16;100.00
11038;BME280;5572;49.540;11.932;2023-11-19T11:58:21;96193.75;;;14.47;100.00
11038;BME280;5572;49.540;11.932;2023-11-19T12:00:48;96177.50;;;14.84;100.00
11038;BME280;5572;49.540;11.932;2023-11-19T12:03:19;96182.56;;;14.23;100.00
11038;BME280;5572;49.540;11.932;2023-11-19T12:05:48;96180.50;;;14.20;100.00
11038;BME280;5572;49.540;11.932;2023-11-19T12:08:18;96183.50;;;13.93;100.00
11038;BME280;5572;49.540;11.932;2023-11-19T12:10:46;96154.28;;;14.16;100.00
11038;BME280;5572;49.540;11.932;2023-11-19T12:13:14;96157.31;;;14.06;100.00
11038;BME280;5572;49.540;11.932;2023-11-19T12:16:08;96150.91;;;14.02;100.00
11038;BME280;5572;49.540;11.932;2023-11-19T12:18:35;96130.44;;;14.04;100.00
11038;BME280;5572;49.540;11.932;2023-11-19T12:21:03;96128.06;;;14.11;100.00
11038;BME280;5572;49.540;11.932;2023-11-19T12:23:31;96134.25;;;14.29;100.00
11038;BME280;5572;49.540;11.932;2023-11-19T12:25:58;96132.69;;;13.85;100.00
11038;BME280;5572;49.540;11.932;2023-11-19T12:28:25;96116.06;;;13.95;100.00
11038;BME280;5572;49.540;11.932;2023-11-19T12:30:53;96111.25;;;13.75;100.00
11038;BME280;5572;49.540;11.932;2023-11-19T12:33:20;96085.53;;;14.07;100.00
11038;BME280;5572;49.540;11.932;2023-11-19T12:35:47;96070.97;;;13.94;100.00
11038;BME280;5572;49.540;11.932;2023-11-19T12:38:22;96064.91;;;13.97;100.00
11038;BME280;5572;49.540;11.932;2023-11-19T12:41:02;96069.69;;;13.83;100.00
11038;BME280;5572;49.540;11.932;2023-11-19T12:43:29;96066.69;;;13.76;100.00
11038;BME280;5572;49.540;11.932;2023-11-19T12:45:55;96052.78;;;13.70;100.00
11038;BME280;5572;49.540;11.932;2023-11-19T12:48:22;96062.03;;;13.85;100.00
11038;BME280;5572;49.540;11.932;2023-11-19T12:50:52;96060.78;;;13.91;100.00
11038;BME280;5572;49.540;11.932;2023-11-19T12:53:19;96049.03;;;14.08;100.00
11038;BME280;5572;49.540;11.932;2023-11-19T12:55:47;96041.75;;;13.83;100.00
11038;BME280;5572;49.540;11.932;2023-11-19T12:58:28;96032.16;;;13.94;100.00
11038;BME280;5572;49.540;11.932;2023-11-19T13:00:59;96029.91;;;13.96;100.00
11038;BME280;5572;49.540;11.932;2023-11-19T13:03:29;96034.72;;;13.73;100.00
11038;BME280;5572;49.540;11.932;2023-11-19T13:06:01;96032.16;;;13.94;100.00
11038;BME280;5572;49.540;11.932;2023-11-19T13:08:35;96028.81;;;13.88;100.00
11038;BME280;5572;49.540;11.932;2023-11-19T13:11:03;96029.31;;;13.65;100.00
11038;BME280;5572;49.540;11.932;2023-11-19T13:13:31;96038.25;;;13.74;100.00
11038;BME280;5572;49.540;11.932;2023-11-19T13:16:02;96035.06;;;13.64;100.00
11038;BME280;5572;49.540;11.932;2023-11-19T19:20:25;96343.72;;;11.08;100.00
11038;BME280;5572;49.540;11.932;2023-11-19T19:22:51;96351.72;;;10.99;100.00
11038;BME280;5572;49.540;11.932;2023-11-19T19:25:18;96343.38;;;10.96;100.00
11038;BME280;5572;49.540;11.932;2023-11-19T19:27:44;96348.63;;;11.06;100.00
11038;BME280;5572;49.540;11.932;2023-11-19T19:30:12;96351.72;;;10.99;100.00
11038;BME280;5572;49.540;11.932;2023-11-19T19:32:39;96350.63;;;11.00;100.00
11038;BME280;5572;49.540;11.932;2023-11-19T19:35:09;96351.50;;;10.96;100.00
11038;BME280;5572;49.540;11.932;2023-11-19T19:37:37;96350.16;;;10.93;100.00
11038;BME280;5572;49.540;11.932;2023-11-19T19:40:04;96352.66;;;10.90;100.00
11038;BME280;5572;49.540;11.932;2023-11-19T19:42:31;96338.22;;;10.81;100.00
11038;BME280;5572;49.540;11.932;2023-11-19T19:44:58;96332.63;;;10.59;100.00
11038;BME280;5572;49.540;11.932;2023-11-19T19:47:25;96347.16;;;10.81;100.00
11038;BME280;5572;49.540;11.932;2023-11-19T19:49:51;96352.97;;;10.88;100.00
11038;BME280;5572;49.540;11.932;2023-11-19T19:52:18;96361.09;;;10.88;100.00
11038;BME280;5572;49.540;11.932;2023-11-19T19:54:46;96366.31;;;10.98;100.00
11038;BME280;5572;49.540;11.932;2023-11-19T19:57:12;96367.94;;;10.99;100.00
11038;BME280;5572;49.540;11.932;2023-11-19T19:59:39;96379.25;;;11.01;100.00
11038;BME280;5572;49.540;11.932;2023-11-19T20:02:05;96382.91;;;11.10;100.00
11038;BME280;5572;49.540;11.932;2023-11-19T20:04:32;96387.28;;;11.06;100.00
11038;BME280;5572;49.540;11.932;2023-11-19T20:07:00;96375.19;;;10.85;100.00
11038;BME280;5572;49.540;11.932;2023-11-19T20:09:27;96380.75;;;10.94;100.00
11038;BME280;5572;49.540;11.932;2023-11-19T20:11:55;96389.88;;;10.98;100.00
11038;BME280;5572;49.540;11.932;2023-11-19T20:14:23;96409.38;;;10.95;100.00
11038;BME280;5572;49.540;11.932;2023-11-19T20:16:52;96398.25;;;10.96;100.00
11038;BME280;5572;49.540;11.932;2023-11-19T20:19:19;96391.13;;;10.87;100.00
11038;BME280;5572;49.540;11.932;2023-11-19T20:21:46;96388.03;;;10.93;100.00
11038;BME280;5572;49.540;11.932;2023-11-19T20:24:12;96391.44;;;10.99;100.00
11038;BME280;5572;49.540;11.932;2023-11-19T20:26:39;96381.84;;;10.93;100.00
11038;BME280;5572;49.540;11.932;2023-11-19T20:29:07;96388.72;;;10.85;100.00
11038;BME280;5572;49.540;11.932;2023-11-19T20:31:34;96389.03;;;10.65;100.00
11038;BME280;5572;49.540;11.932;2023-11-19T20:34:05;96380.84;;;10.70;100.00
11038;BME280;5572;49.540;11.932;2023-11-19T20:36:32;96385.94;;;10.72;100.00
11038;BME280;5572;49.540;11.932;2023-11-19T20:38:58;96383.56;;;10.52;100.00
11038;BME280;5572;49.540;11.932;2023-11-19T20:41:25;96375.91;;;10.40;100.00
11038;BME280;5572;49.540;11.932;2023-11-19T20:43:53;96368.16;;;10.52;100.00
11038;BME280;5572;49.540;11.932;2023-11-19T20:46:20;96363.50;;;10.39;100.00